sensor_id;sensor_type;location;lat;lon;timestamp;P1;durP1;ratioP1;P2;durP2;ratioP2
6406;SDS011;3236;51.022;6.818;2024-02-15T00:00:22;11.32;;;4.20;;
6406;SDS011;3236;51.022;6.818;2024-02-15T00:02:52;8.95;;;3.40;;
6406;SDS011;3236;51.022;6.818;2024-02-15T00:05:19;12.65;;;4.40;;
6406;SDS011;3236;51.022;6.818;2024-02-15T00:07:47;14.82;;;4.70;;
6406;SDS011;3236;51.022;6.818;2024-02-15T00:10:16;9.52;;;4.82;;
6406;SDS011;3236;51.022;6.818;2024-02-15T00:12:43;12.20;;;3.92;;
6406;SDS011;3236;51.022;6.818;2024-02-15T00:15:10;10.55;;;4.50;;
6406;SDS011;3236;51.022;6.818;2024-02-15T00:17:38;15.40;;;3.95;;
6406;SDS011;3236;51.022;6.818;2024-02-15T00:20:06;13.18;;;4.47;;
6406;SDS011;3236;51.022;6.818;2024-02-15T00:22:34;8.02;;;3.30;;
6406;SDS011;3236;51.022;6.818;2024-02-15T00:25:02;12.30;;;4.43;;
6406;SDS011;3236;51.022;6.818;2024-02-15T00:27:31;15.93;;;4.63;;
6406;SDS011;3236;51.022;6.818;2024-02-15T00:30:00;13.02;;;4.75;;
6406;SDS011;3236;51.022;6.818;2024-02-15T00:32:28;14.15;;;5.15;;
6406;SDS011;3236;51.022;6.818;2024-02-15T00:34:58;10.07;;;4.70;;
6406;SDS011;3236;51.022;6.818;2024-02-15T00:37:25;15.68;;;5.05;;
6406;SDS011;3236;51.022;6.818;2024-02-15T00:39:53;22.52;;;4.45;;
6406;SDS011;3236;51.022;6.818;2024-02-15T00:42:22;14.82;;;4.50;;
6406;SDS011;3236;51.022;6.818;2024-02-15T00:44:50;11.05;;;5.10;;
6406;SDS011;3236;51.022;6.818;2024-02-15T00:47:18;16.65;;;4.60;;
6406;SDS011;3236;51.022;6.818;2024-02-15T00:49:46;9.38;;;4.43;;
6406;SDS011;3236;51.022;6.818;2024-02-15T00:52:15;10.57;;;4.47;;
6406;SDS011;3236;51.022;6.818;2024-02-15T00:54:42;14.07;;;4.75;;
6406;SDS011;3236;51.022;6.818;2024-02-15T00:57:10;12.13;;;4.53;;
6406;SDS011;3236;51.022;6.818;2024-02-15T00:59:37;13.68;;;4.13;;
6406;SDS011;3236;51.022;6.818;2024-02-15T01:02:06;13.20;;;4.13;;
6406;SDS011;3236;51.022;6.818;2024-02-15T01:04:33;9.82;;;3.60;;
6406;SDS011;3236;51.022;6.818;2024-02-15T01:07:01;10.35;;;4.75;;
6406;SDS011;3236;51.022;6.818;2024-02-15T01:09:31;11.13;;;4.28;;
6406;SDS011;3236;51.022;6.818;2024-02-15T01:11:59;15.52;;;4.50;;
6406;SDS011;3236;51.022;6.818;2024-02-15T01:14:29;13.85;;;4.55;;
6406;SDS011;3236;51.022;6.818;2024-02-15T01:16:56;12.20;;;4.70;;
6406;SDS011;3236;51.022;6.818;2024-02-15T01:19:25;12.85;;;4.90;;
6406;SDS011;3236;51.022;6.818;2024-02-15T01:21:53;14.30;;;5.05;;
6406;SDS011;3236;51.022;6.818;2024-02-15T01:24:20;15.32;;;5.05;;
6406;SDS011;3236;51.022;6.818;2024-02-15T01:26:48;8.65;;;4.40;;
6406;SDS011;3236;51.022;6.818;2024-02-15T01:29:15;9.20;;;4.47;;
6406;SDS011;3236;51.022;6.818;2024-02-15T01:31:42;12.35;;;4.15;;
6406;SDS011;3236;51.022;6.818;2024-02-15T01:34:12;9.40;;;5.85;;
6406;SDS011;3236;51.022;6.818;2024-02-15T01:36:41;10.82;;;4.18;;
6406;SDS011;3236;51.022;6.818;2024-02-15T01:39:09;10.95;;;3.78;;
6406;SDS011;3236;51.022;6.818;2024-02-15T01:41:36;10.38;;;3.60;;
6406;SDS011;3236;51.022;6.818;2024-02-15T01:44:04;13.15;;;4.20;;
6406;SDS011;3236;51.022;6.818;2024-02-15T01:46:35;16.38;;;4.60;;
6406;SDS011;3236;51.022;6.818;2024-02-15T01:49:02;11.25;;;4.18;;
6406;SDS011;3236;51.022;6.818;2024-02-15T01:51:30;10.13;;;4.15;;
6406;SDS011;3236;51.022;6.818;2024-02-15T01:54:00;12.90;;;4.40;;
6406;SDS011;3236;51.022;6.818;2024-02-15T01:56:27;9.70;;;4.00;;
6406;SDS011;3236;51.022;6.818;2024-02-15T01:58:55;13.00;;;4.05;;
6406;SDS011;3236;51.022;6.818;2024-02-15T02:01:23;7.50;;;3.85;;
6406;SDS011;3236;51.022;6.818;2024-02-15T02:03:50;10.02;;;3.95;;
6406;SDS011;3236;51.022;6.818;2024-02-15T02:06:18;8.60;;;4.30;;
6406;SDS011;3236;51.022;6.818;2024-02-15T02:08:45;10.48;;;4.13;;
6406;SDS011;3236;51.022;6.818;2024-02-15T02:11:14;14.45;;;4.20;;
6406;SDS011;3236;51.022;6.818;2024-02-15T02:13:41;6.68;;;3.70;;
6406;SDS011;3236;51.022;6.818;2024-02-15T02:18:51;9.80;;;3.58;;
6406;SDS011;3236;51.022;6.818;2024-02-15T02:21:18;10.05;;;3.45;;
6406;SDS011;3236;51.022;6.818;2024-02-15T02:23:46;5.40;;;3.20;;
6406;SDS011;3236;51.022;6.818;2024-02-15T02:26:20;7.88;;;3.13;;
6406;SDS011;3236;51.022;6.818;2024-02-15T02:28:48;12.25;;;3.50;;
6406;SDS011;3236;51.022;6.818;2024-02-15T02:31:16;7.65;;;3.00;;
6406;SDS011;3236;51.022;6.818;2024-02-15T02:33:44;10.57;;;3.17;;
6406;SDS011;3236;51.022;6.818;2024-02-15T02:36:14;13.93;;;3.53;;
6406;SDS011;3236;51.022;6.818;2024-02-15T02:38:42;9.40;;;3.30;;
6406;SDS011;3236;51.022;6.818;2024-02-15T02:41:10;6.10;;;3.00;;
6406;SDS011;3236;51.022;6.818;2024-02-15T02:43:39;3.78;;;2.50;;
6406;SDS011;3236;51.022;6.818;2024-02-15T02:46:15;5.78;;;2.50;;
6406;SDS011;3236;51.022;6.818;2024-02-15T02:48:42;7.15;;;2.40;;
6406;SDS011;3236;51.022;6.818;2024-02-15T02:51:09;5.97;;;2.60;;
6406;SDS011;3236;51.022;6.818;2024-02-15T02:53:37;3.95;;;2.90;;
6406;SDS011;3236;51.022;6.818;2024-02-15T02:56:07;5.03;;;2.80;;
6406;SDS011;3236;51.022;6.818;2024-02-15T02:58:34;5.32;;;2.88;;
6406;SDS011;3236;51.022;6.818;2024-02-15T03:01:03;3.58;;;2.53;;
6406;SDS011;3236;51.022;6.818;2024-02-15T03:03:31;4.75;;;2.78;;
6406;SDS011;3236;51.022;6.818;2024-02-15T03:05:59;3.45;;;2.45;;
6406;SDS011;3236;51.022;6.818;2024-02-15T03:08:26;4.68;;;2.22;;
6406;SDS011;3236;51.022;6.818;2024-02-15T03:10:54;9.52;;;3.25;;
6406;SDS011;3236;51.022;6.818;2024-02-15T03:13:21;4.85;;;2.67;;
6406;SDS011;3236;51.022;6.818;2024-02-15T03:15:49;4.80;;;2.50;;
6406;SDS011;3236;51.022;6.818;2024-02-15T03:18:17;4.70;;;3.20;;
6406;SDS011;3236;51.022;6.818;2024-02-15T03:20:44;5.30;;;2.70;;
6406;SDS011;3236;51.022;6.818;2024-02-15T03:23:13;4.88;;;2.72;;
6406;SDS011;3236;51.022;6.818;2024-02-15T03:25:41;5.72;;;3.65;;
6406;SDS011;3236;51.022;6.818;2024-02-15T03:28:11;10.95;;;3.17;;
6406;SDS011;3236;51.022;6.818;2024-02-15T03:30:41;9.55;;;3.30;;
6406;SDS011;3236;51.022;6.818;2024-02-15T03:33:12;7.72;;;3.92;;
6406;SDS011;3236;51.022;6.818;2024-02-15T03:35:41;5.63;;;3.35;;
6406;SDS011;3236;51.022;6.818;2024-02-15T03:38:08;8.55;;;3.72;;
6406;SDS011;3236;51.022;6.818;2024-02-15T03:40:35;8.75;;;4.13;;
6406;SDS011;3236;51.022;6.818;2024-02-15T03:43:07;8.75;;;3.90;;
6406;SDS011;3236;51.022;6.818;2024-02-15T03:45:37;8.55;;;4.50;;
6406;SDS011;3236;51.022;6.818;2024-02-15T03:48:07;11.23;;;4.80;;
6406;SDS011;3236;51.022;6.818;2024-02-15T03:50:35;7.63;;;5.80;;
6406;SDS011;3236;51.022;6.818;2024-02-15T03:53:06;8.40;;;5.28;;
6406;SDS011;3236;51.022;6.818;2024-02-15T03:55:36;11.52;;;6.80;;
6406;SDS011;3236;51.022;6.818;2024-02-15T03:58:03;9.25;;;5.50;;
6406;SDS011;3236;51.022;6.818;2024-02-15T04:00:35;7.93;;;6.00;;
6406;SDS011;3236;51.022;6.818;2024-02-15T04:03:04;6.97;;;5.65;;
6406;SDS011;3236;51.022;6.818;2024-02-15T04:05:31;9.45;;;5.55;;
6406;SDS011;3236;51.022;6.818;2024-02-15T04:08:01;7.72;;;5.90;;
6406;SDS011;3236;51.022;6.818;2024-02-15T04:10:31;12.45;;;6.20;;
6406;SDS011;3236;51.022;6.818;2024-02-15T04:12:59;10.10;;;5.68;;
6406;SDS011;3236;51.022;6.818;2024-02-15T04:15:33;7.75;;;5.47;;
6406;SDS011;3236;51.022;6.818;2024-02-15T04:18:02;13.50;;;4.97;;
6406;SDS011;3236;51.022;6.818;2024-02-15T04:20:30;11.45;;;5.30;;
6406;SDS011;3236;51.022;6.818;2024-02-15T04:22:58;8.38;;;4.90;;
6406;SDS011;3236;51.022;6.818;2024-02-15T04:25:25;10.75;;;4.82;;
6406;SDS011;3236;51.022;6.818;2024-02-15T04:27:54;5.50;;;4.35;;
6406;SDS011;3236;51.022;6.818;2024-02-15T04:30:22;7.50;;;4.57;;
6406;SDS011;3236;51.022;6.818;2024-02-15T04:32:50;6.25;;;3.85;;
6406;SDS011;3236;51.022;6.818;2024-02-15T04:35:21;8.80;;;3.92;;
6406;SDS011;3236;51.022;6.818;2024-02-15T04:37:49;7.65;;;3.88;;
6406;SDS011;3236;51.022;6.818;2024-02-15T04:40:19;7.05;;;3.83;;
6406;SDS011;3236;51.022;6.818;2024-02-15T04:42:46;5.68;;;3.50;;
6406;SDS011;3236;51.022;6.818;2024-02-15T04:45:15;6.25;;;3.78;;
6406;SDS011;3236;51.022;6.818;2024-02-15T04:47:42;5.97;;;3.83;;
6406;SDS011;3236;51.022;6.818;2024-02-15T04:50:10;7.20;;;3.83;;
6406;SDS011;3236;51.022;6.818;2024-02-15T04:52:37;8.02;;;3.72;;
6406;SDS011;3236;51.022;6.818;2024-02-15T04:55:04;6.93;;;3.40;;
6406;SDS011;3236;51.022;6.818;2024-02-15T04:57:32;5.65;;;3.83;;
6406;SDS011;3236;51.022;6.818;2024-02-15T05:00:02;11.00;;;4.18;;
6406;SDS011;3236;51.022;6.818;2024-02-15T05:02:36;5.00;;;3.70;;
6406;SDS011;3236;51.022;6.818;2024-02-15T05:05:06;11.85;;;3.83;;
6406;SDS011;3236;51.022;6.818;2024-02-15T05:07:33;11.32;;;3.85;;
6406;SDS011;3236;51.022;6.818;2024-02-15T05:10:02;10.30;;;3.72;;
6406;SDS011;3236;51.022;6.818;2024-02-15T05:12:31;8.57;;;3.85;;
6406;SDS011;3236;51.022;6.818;2024-02-15T05:15:00;7.88;;;4.20;;
6406;SDS011;3236;51.022;6.818;2024-02-15T05:20:20;9.32;;;4.13;;
6406;SDS011;3236;51.022;6.818;2024-02-15T05:22:47;11.50;;;4.70;;
6406;SDS011;3236;51.022;6.818;2024-02-15T05:25:15;6.53;;;4.07;;
6406;SDS011;3236;51.022;6.818;2024-02-15T05:27:47;14.00;;;4.50;;
6406;SDS011;3236;51.022;6.818;2024-02-15T05:30:16;12.57;;;4.10;;
6406;SDS011;3236;51.022;6.818;2024-02-15T05:32:43;6.13;;;4.20;;
6406;SDS011;3236;51.022;6.818;2024-02-15T05:35:11;11.65;;;4.32;;
6406;SDS011;3236;51.022;6.818;2024-02-15T05:37:40;7.88;;;5.28;;
6406;SDS011;3236;51.022;6.818;2024-02-15T05:40:07;8.27;;;4.68;;
6406;SDS011;3236;51.022;6.818;2024-02-15T05:42:40;7.45;;;4.45;;
6406;SDS011;3236;51.022;6.818;2024-02-15T05:47:59;13.43;;;5.25;;
6406;SDS011;3236;51.022;6.818;2024-02-15T05:50:27;12.10;;;5.00;;
6406;SDS011;3236;51.022;6.818;2024-02-15T05:52:57;7.43;;;4.57;;
6406;SDS011;3236;51.022;6.818;2024-02-15T05:55:26;17.00;;;5.47;;
6406;SDS011;3236;51.022;6.818;2024-02-15T05:57:56;11.52;;;5.85;;
6406;SDS011;3236;51.022;6.818;2024-02-15T06:00:23;11.25;;;5.93;;
6406;SDS011;3236;51.022;6.818;2024-02-15T06:02:51;13.40;;;5.60;;
6406;SDS011;3236;51.022;6.818;2024-02-15T06:05:20;18.80;;;6.03;;
6406;SDS011;3236;51.022;6.818;2024-02-15T06:07:49;11.93;;;4.40;;
6406;SDS011;3236;51.022;6.818;2024-02-15T06:10:17;10.13;;;4.15;;
6406;SDS011;3236;51.022;6.818;2024-02-15T06:12:44;13.68;;;5.43;;
6406;SDS011;3236;51.022;6.818;2024-02-15T06:15:11;11.35;;;4.45;;
6406;SDS011;3236;51.022;6.818;2024-02-15T06:17:44;7.65;;;4.30;;
6406;SDS011;3236;51.022;6.818;2024-02-15T06:20:12;12.05;;;4.80;;
6406;SDS011;3236;51.022;6.818;2024-02-15T06:25:14;9.70;;;4.57;;
6406;SDS011;3236;51.022;6.818;2024-02-15T06:27:47;10.55;;;4.20;;
6406;SDS011;3236;51.022;6.818;2024-02-15T06:30:16;8.25;;;4.00;;
6406;SDS011;3236;51.022;6.818;2024-02-15T06:33:01;9.00;;;4.82;;
6406;SDS011;3236;51.022;6.818;2024-02-15T06:36:03;11.50;;;4.47;;
6406;SDS011;3236;51.022;6.818;2024-02-15T06:38:48;11.63;;;4.35;;
6406;SDS011;3236;51.022;6.818;2024-02-15T06:41:33;11.57;;;4.20;;
6406;SDS011;3236;51.022;6.818;2024-02-15T06:44:02;10.32;;;5.40;;
6406;SDS011;3236;51.022;6.818;2024-02-15T06:46:31;10.02;;;4.40;;
6406;SDS011;3236;51.022;6.818;2024-02-15T06:48:59;10.98;;;4.32;;
6406;SDS011;3236;51.022;6.818;2024-02-15T06:51:30;13.07;;;4.25;;
6406;SDS011;3236;51.022;6.818;2024-02-15T06:54:03;9.88;;;4.20;;
6406;SDS011;3236;51.022;6.818;2024-02-15T06:56:42;10.20;;;4.35;;
6406;SDS011;3236;51.022;6.818;2024-02-15T06:59:12;6.88;;;4.00;;
6406;SDS011;3236;51.022;6.818;2024-02-15T07:01:42;10.65;;;3.97;;
6406;SDS011;3236;51.022;6.818;2024-02-15T07:04:09;13.68;;;4.18;;
6406;SDS011;3236;51.022;6.818;2024-02-15T07:06:37;9.82;;;3.95;;
6406;SDS011;3236;51.022;6.818;2024-02-15T07:09:04;7.63;;;3.92;;
6406;SDS011;3236;51.022;6.818;2024-02-15T07:11:32;13.60;;;4.10;;
6406;SDS011;3236;51.022;6.818;2024-02-15T07:14:00;8.07;;;3.97;;
6406;SDS011;3236;51.022;6.818;2024-02-15T07:16:28;10.43;;;4.57;;
6406;SDS011;3236;51.022;6.818;2024-02-15T07:18:57;8.43;;;3.60;;
6406;SDS011;3236;51.022;6.818;2024-02-15T07:21:25;8.48;;;4.25;;
6406;SDS011;3236;51.022;6.818;2024-02-15T07:23:52;9.68;;;4.03;;
6406;SDS011;3236;51.022;6.818;2024-02-15T07:26:20;8.68;;;3.63;;
6406;SDS011;3236;51.022;6.818;2024-02-15T07:28:49;7.47;;;3.70;;
6406;SDS011;3236;51.022;6.818;2024-02-15T07:31:18;13.40;;;3.90;;
6406;SDS011;3236;51.022;6.818;2024-02-15T07:33:47;10.50;;;3.63;;
6406;SDS011;3236;51.022;6.818;2024-02-15T07:36:17;9.50;;;3.15;;
6406;SDS011;3236;51.022;6.818;2024-02-15T07:38:46;8.75;;;3.33;;
6406;SDS011;3236;51.022;6.818;2024-02-15T07:41:15;11.65;;;3.63;;
6406;SDS011;3236;51.022;6.818;2024-02-15T07:43:43;10.35;;;4.85;;
6406;SDS011;3236;51.022;6.818;2024-02-15T07:46:12;8.77;;;3.50;;
6406;SDS011;3236;51.022;6.818;2024-02-15T07:48:41;8.02;;;4.20;;
6406;SDS011;3236;51.022;6.818;2024-02-15T07:51:12;11.02;;;4.03;;
6406;SDS011;3236;51.022;6.818;2024-02-15T07:53:43;9.05;;;4.20;;
6406;SDS011;3236;51.022;6.818;2024-02-15T07:56:17;11.05;;;3.70;;
6406;SDS011;3236;51.022;6.818;2024-02-15T07:58:45;10.13;;;3.50;;
6406;SDS011;3236;51.022;6.818;2024-02-15T08:01:17;10.02;;;4.10;;
6406;SDS011;3236;51.022;6.818;2024-02-15T08:03:46;14.27;;;4.20;;
6406;SDS011;3236;51.022;6.818;2024-02-15T08:06:15;8.57;;;3.83;;
6406;SDS011;3236;51.022;6.818;2024-02-15T08:08:43;8.38;;;3.70;;
6406;SDS011;3236;51.022;6.818;2024-02-15T08:11:12;7.70;;;3.70;;
6406;SDS011;3236;51.022;6.818;2024-02-15T08:13:43;12.23;;;3.90;;
6406;SDS011;3236;51.022;6.818;2024-02-15T08:16:13;8.23;;;4.03;;
6406;SDS011;3236;51.022;6.818;2024-02-15T08:18:44;6.90;;;3.17;;
6406;SDS011;3236;51.022;6.818;2024-02-15T08:21:12;9.70;;;3.80;;
6406;SDS011;3236;51.022;6.818;2024-02-15T08:23:40;7.32;;;4.63;;
6406;SDS011;3236;51.022;6.818;2024-02-15T08:26:08;7.95;;;3.75;;
6406;SDS011;3236;51.022;6.818;2024-02-15T08:28:36;9.07;;;2.88;;
6406;SDS011;3236;51.022;6.818;2024-02-15T08:31:03;11.43;;;3.53;;
6406;SDS011;3236;51.022;6.818;2024-02-15T08:33:33;12.18;;;3.22;;
6406;SDS011;3236;51.022;6.818;2024-02-15T08:36:04;10.20;;;3.45;;
6406;SDS011;3236;51.022;6.818;2024-02-15T08:38:32;11.93;;;3.58;;
6406;SDS011;3236;51.022;6.818;2024-02-15T08:41:03;7.40;;;3.08;;
6406;SDS011;3236;51.022;6.818;2024-02-15T08:43:34;5.30;;;2.97;;
6406;SDS011;3236;51.022;6.818;2024-02-15T08:46:04;7.88;;;3.17;;
6406;SDS011;3236;51.022;6.818;2024-02-15T08:48:32;12.60;;;3.78;;
6406;SDS011;3236;51.022;6.818;2024-02-15T08:51:00;10.43;;;3.85;;
6406;SDS011;3236;51.022;6.818;2024-02-15T08:53:27;11.30;;;3.75;;
6406;SDS011;3236;51.022;6.818;2024-02-15T08:55:54;8.88;;;3.58;;
6406;SDS011;3236;51.022;6.818;2024-02-15T08:58:23;10.77;;;3.42;;
6406;SDS011;3236;51.022;6.818;2024-02-15T09:00:58;8.60;;;3.22;;
6406;SDS011;3236;51.022;6.818;2024-02-15T09:03:25;9.32;;;3.45;;
6406;SDS011;3236;51.022;6.818;2024-02-15T09:05:53;9.50;;;3.58;;
6406;SDS011;3236;51.022;6.818;2024-02-15T09:08:24;11.52;;;3.38;;
6406;SDS011;3236;51.022;6.818;2024-02-15T09:10:52;13.30;;;3.63;;
6406;SDS011;3236;51.022;6.818;2024-02-15T09:13:19;10.68;;;3.25;;
6406;SDS011;3236;51.022;6.818;2024-02-15T09:15:49;17.30;;;5.18;;
6406;SDS011;3236;51.022;6.818;2024-02-15T09:18:16;9.20;;;3.58;;
6406;SDS011;3236;51.022;6.818;2024-02-15T09:20:46;10.70;;;3.47;;
6406;SDS011;3236;51.022;6.818;2024-02-15T09:23:14;12.40;;;3.63;;
6406;SDS011;3236;51.022;6.818;2024-02-15T09:25:44;10.43;;;4.28;;
6406;SDS011;3236;51.022;6.818;2024-02-15T09:28:16;13.27;;;4.00;;
6406;SDS011;3236;51.022;6.818;2024-02-15T09:30:48;12.20;;;4.32;;
6406;SDS011;3236;51.022;6.818;2024-02-15T09:33:18;7.13;;;3.53;;
6406;SDS011;3236;51.022;6.818;2024-02-15T09:35:46;9.13;;;3.90;;
6406;SDS011;3236;51.022;6.818;2024-02-15T09:38:14;7.85;;;3.15;;
6406;SDS011;3236;51.022;6.818;2024-02-15T09:40:51;8.27;;;3.63;;
6406;SDS011;3236;51.022;6.818;2024-02-15T09:43:19;13.32;;;3.45;;
6406;SDS011;3236;51.022;6.818;2024-02-15T09:45:51;12.40;;;3.50;;
6406;SDS011;3236;51.022;6.818;2024-02-15T09:48:25;9.20;;;3.28;;
6406;SDS011;3236;51.022;6.818;2024-02-15T09:50:56;12.25;;;3.60;;
6406;SDS011;3236;51.022;6.818;2024-02-15T09:53:25;10.18;;;3.40;;
6406;SDS011;3236;51.022;6.818;2024-02-15T09:55:54;12.27;;;3.63;;
6406;SDS011;3236;51.022;6.818;2024-02-15T09:58:28;10.63;;;3.50;;
6406;SDS011;3236;51.022;6.818;2024-02-15T10:01:02;12.25;;;3.33;;
6406;SDS011;3236;51.022;6.818;2024-02-15T10:03:34;6.15;;;2.72;;
6406;SDS011;3236;51.022;6.818;2024-02-15T10:06:05;6.65;;;2.30;;
6406;SDS011;3236;51.022;6.818;2024-02-15T10:08:33;9.18;;;3.65;;
6406;SDS011;3236;51.022;6.818;2024-02-15T10:11:06;7.07;;;2.38;;
6406;SDS011;3236;51.022;6.818;2024-02-15T10:13:35;7.53;;;2.92;;
6406;SDS011;3236;51.022;6.818;2024-02-15T10:16:16;7.28;;;2.53;;
6406;SDS011;3236;51.022;6.818;2024-02-15T10:18:44;8.45;;;2.60;;
6406;SDS011;3236;51.022;6.818;2024-02-15T10:21:23;8.23;;;3.00;;
6406;SDS011;3236;51.022;6.818;2024-02-15T10:24:02;8.32;;;2.92;;
6406;SDS011;3236;51.022;6.818;2024-02-15T10:26:31;9.55;;;2.50;;
6406;SDS011;3236;51.022;6.818;2024-02-15T10:29:06;6.68;;;2.35;;
6406;SDS011;3236;51.022;6.818;2024-02-15T10:31:38;6.22;;;2.13;;
6406;SDS011;3236;51.022;6.818;2024-02-15T10:34:07;6.05;;;2.05;;
6406;SDS011;3236;51.022;6.818;2024-02-15T10:36:37;7.82;;;2.30;;
6406;SDS011;3236;51.022;6.818;2024-02-15T10:39:13;4.45;;;2.50;;
6406;SDS011;3236;51.022;6.818;2024-02-15T10:41:45;4.70;;;2.20;;
6406;SDS011;3236;51.022;6.818;2024-02-15T10:44:16;4.72;;;1.90;;
6406;SDS011;3236;51.022;6.818;2024-02-15T10:46:46;6.25;;;2.40;;
6406;SDS011;3236;51.022;6.818;2024-02-15T10:49:18;6.07;;;2.42;;
6406;SDS011;3236;51.022;6.818;2024-02-15T10:51:48;3.97;;;2.10;;
6406;SDS011;3236;51.022;6.818;2024-02-15T10:54:22;8.70;;;2.38;;
6406;SDS011;3236;51.022;6.818;2024-02-15T10:56:53;5.05;;;1.98;;
6406;SDS011;3236;51.022;6.818;2024-02-15T10:59:29;5.90;;;2.03;;
6406;SDS011;3236;51.022;6.818;2024-02-15T11:02:01;7.25;;;2.83;;
6406;SDS011;3236;51.022;6.818;2024-02-15T11:04:51;7.50;;;2.05;;
6406;SDS011;3236;51.022;6.818;2024-02-15T11:09:53;4.28;;;1.75;;
6406;SDS011;3236;51.022;6.818;2024-02-15T11:12:21;8.10;;;2.38;;
6406;SDS011;3236;51.022;6.818;2024-02-15T11:14:57;10.63;;;2.08;;
6406;SDS011;3236;51.022;6.818;2024-02-15T11:23:24;10.40;;;2.25;;
6406;SDS011;3236;51.022;6.818;2024-02-15T11:25:53;8.05;;;2.35;;
6406;SDS011;3236;51.022;6.818;2024-02-15T11:28:37;6.18;;;2.05;;
6406;SDS011;3236;51.022;6.818;2024-02-15T11:31:09;6.33;;;1.70;;
6406;SDS011;3236;51.022;6.818;2024-02-15T11:33:43;10.52;;;2.60;;
6406;SDS011;3236;51.022;6.818;2024-02-15T11:36:10;7.13;;;2.22;;
6406;SDS011;3236;51.022;6.818;2024-02-15T11:38:38;6.40;;;2.53;;
6406;SDS011;3236;51.022;6.818;2024-02-15T11:41:08;7.40;;;2.08;;
6406;SDS011;3236;51.022;6.818;2024-02-15T11:43:46;7.85;;;2.55;;
6406;SDS011;3236;51.022;6.818;2024-02-15T11:46:21;10.35;;;3.65;;
6406;SDS011;3236;51.022;6.818;2024-02-15T11:48:55;11.95;;;2.05;;
6406;SDS011;3236;51.022;6.818;2024-02-15T11:51:24;5.40;;;2.20;;
6406;SDS011;3236;51.022;6.818;2024-02-15T11:54:01;9.88;;;2.65;;
6406;SDS011;3236;51.022;6.818;2024-02-15T11:59:30;9.23;;;2.58;;
6406;SDS011;3236;51.022;6.818;2024-02-15T12:02:08;9.77;;;2.20;;
6406;SDS011;3236;51.022;6.818;2024-02-15T12:04:54;5.80;;;2.90;;
6406;SDS011;3236;51.022;6.818;2024-02-15T12:07:53;8.18;;;2.15;;
6406;SDS011;3236;51.022;6.818;2024-02-15T12:10:38;3.60;;;2.00;;
6406;SDS011;3236;51.022;6.818;2024-02-15T12:13:26;6.13;;;2.03;;
6406;SDS011;3236;51.022;6.818;2024-02-15T12:16:15;12.35;;;2.42;;
6406;SDS011;3236;51.022;6.818;2024-02-15T12:19:00;8.43;;;2.15;;
6406;SDS011;3236;51.022;6.818;2024-02-15T12:21:30;5.07;;;2.20;;
6406;SDS011;3236;51.022;6.818;2024-02-15T12:23:59;5.05;;;1.83;;
6406;SDS011;3236;51.022;6.818;2024-02-15T12:26:26;8.18;;;2.50;;
6406;SDS011;3236;51.022;6.818;2024-02-15T12:28:59;9.35;;;1.83;;
6406;SDS011;3236;51.022;6.818;2024-02-15T12:31:27;14.85;;;2.25;;
6406;SDS011;3236;51.022;6.818;2024-02-15T12:34:01;10.18;;;2.50;;
6406;SDS011;3236;51.022;6.818;2024-02-15T12:36:33;4.90;;;2.55;;
6406;SDS011;3236;51.022;6.818;2024-02-15T12:39:02;7.47;;;2.03;;
6406;SDS011;3236;51.022;6.818;2024-02-15T12:41:36;6.93;;;2.20;;
6406;SDS011;3236;51.022;6.818;2024-02-15T12:44:06;8.55;;;2.53;;
6406;SDS011;3236;51.022;6.818;2024-02-15T12:46:35;6.88;;;2.38;;
6406;SDS011;3236;51.022;6.818;2024-02-15T12:49:07;10.40;;;2.60;;
6406;SDS011;3236;51.022;6.818;2024-02-15T12:51:42;6.15;;;2.05;;
6406;SDS011;3236;51.022;6.818;2024-02-15T12:54:19;9.55;;;2.67;;
6406;SDS011;3236;51.022;6.818;2024-02-15T12:56:47;6.82;;;2.20;;
6406;SDS011;3236;51.022;6.818;2024-02-15T12:59:24;9.13;;;1.80;;
6406;SDS011;3236;51.022;6.818;2024-02-15T13:01:57;3.83;;;1.70;;
6406;SDS011;3236;51.022;6.818;2024-02-15T13:04:24;3.03;;;1.23;;
6406;SDS011;3236;51.022;6.818;2024-02-15T13:06:54;4.32;;;2.13;;
6406;SDS011;3236;51.022;6.818;2024-02-15T13:09:21;5.05;;;1.60;;
6406;SDS011;3236;51.022;6.818;2024-02-15T13:11:49;5.03;;;1.55;;
6406;SDS011;3236;51.022;6.818;2024-02-15T13:14:17;6.95;;;1.77;;
6406;SDS011;3236;51.022;6.818;2024-02-15T13:16:45;3.67;;;1.73;;
6406;SDS011;3236;51.022;6.818;2024-02-15T13:19:13;5.07;;;2.10;;
6406;SDS011;3236;51.022;6.818;2024-02-15T13:21:41;4.72;;;2.15;;
6406;SDS011;3236;51.022;6.818;2024-02-15T13:24:10;4.65;;;1.73;;
6406;SDS011;3236;51.022;6.818;2024-02-15T13:26:43;6.78;;;2.22;;
6406;SDS011;3236;51.022;6.818;2024-02-15T13:29:14;8.68;;;2.25;;
6406;SDS011;3236;51.022;6.818;2024-02-15T13:31:41;7.68;;;2.10;;
6406;SDS011;3236;51.022;6.818;2024-02-15T13:34:09;6.72;;;2.28;;
6406;SDS011;3236;51.022;6.818;2024-02-15T13:36:37;6.68;;;2.13;;
6406;SDS011;3236;51.022;6.818;2024-02-15T13:39:04;7.18;;;1.88;;
6406;SDS011;3236;51.022;6.818;2024-02-15T13:41:36;8.10;;;2.20;;
6406;SDS011;3236;51.022;6.818;2024-02-15T13:44:03;6.13;;;2.33;;
6406;SDS011;3236;51.022;6.818;2024-02-15T13:46:32;7.28;;;2.33;;
6406;SDS011;3236;51.022;6.818;2024-02-15T13:48:59;7.07;;;3.20;;
6406;SDS011;3236;51.022;6.818;2024-02-15T13:51:26;4.10;;;2.38;;
6406;SDS011;3236;51.022;6.818;2024-02-15T13:53:54;6.05;;;2.22;;
6406;SDS011;3236;51.022;6.818;2024-02-15T13:56:22;4.32;;;2.10;;
6406;SDS011;3236;51.022;6.818;2024-02-15T13:58:50;5.88;;;2.30;;
6406;SDS011;3236;51.022;6.818;2024-02-15T14:01:18;4.25;;;2.05;;
6406;SDS011;3236;51.022;6.818;2024-02-15T14:03:46;4.88;;;2.03;;
6406;SDS011;3236;51.022;6.818;2024-02-15T14:06:14;8.73;;;2.10;;
6406;SDS011;3236;51.022;6.818;2024-02-15T14:08:41;8.00;;;2.67;;
6406;SDS011;3236;51.022;6.818;2024-02-15T14:11:09;11.65;;;2.25;;
6406;SDS011;3236;51.022;6.818;2024-02-15T14:13:39;6.20;;;2.03;;
6406;SDS011;3236;51.022;6.818;2024-02-15T14:16:08;6.18;;;2.40;;
6406;SDS011;3236;51.022;6.818;2024-02-15T14:18:37;8.27;;;2.35;;
6406;SDS011;3236;51.022;6.818;2024-02-15T14:21:08;10.15;;;2.30;;
6406;SDS011;3236;51.022;6.818;2024-02-15T14:23:36;4.95;;;2.15;;
6406;SDS011;3236;51.022;6.818;2024-02-15T14:26:04;4.93;;;2.10;;
6406;SDS011;3236;51.022;6.818;2024-02-15T14:28:32;6.93;;;1.60;;
6406;SDS011;3236;51.022;6.818;2024-02-15T14:31:00;6.30;;;1.60;;
6406;SDS011;3236;51.022;6.818;2024-02-15T14:33:49;3.88;;;2.13;;
6406;SDS011;3236;51.022;6.818;2024-02-15T14:36:16;4.15;;;1.67;;
6406;SDS011;3236;51.022;6.818;2024-02-15T14:38:44;11.13;;;2.83;;
6406;SDS011;3236;51.022;6.818;2024-02-15T14:41:12;4.85;;;1.67;;
6406;SDS011;3236;51.022;6.818;2024-02-15T14:43:39;6.80;;;2.10;;
6406;SDS011;3236;51.022;6.818;2024-02-15T14:46:08;5.15;;;1.80;;
6406;SDS011;3236;51.022;6.818;2024-02-15T14:48:36;7.00;;;1.92;;
6406;SDS011;3236;51.022;6.818;2024-02-15T14:51:07;4.63;;;1.55;;
6406;SDS011;3236;51.022;6.818;2024-02-15T14:53:35;7.43;;;1.92;;
6406;SDS011;3236;51.022;6.818;2024-02-15T14:56:03;3.88;;;1.60;;
6406;SDS011;3236;51.022;6.818;2024-02-15T14:58:31;5.35;;;1.88;;
6406;SDS011;3236;51.022;6.818;2024-02-15T15:00:59;4.72;;;1.70;;
6406;SDS011;3236;51.022;6.818;2024-02-15T15:03:29;8.27;;;2.10;;
6406;SDS011;3236;51.022;6.818;2024-02-15T15:08:44;7.15;;;2.50;;
6406;SDS011;3236;51.022;6.818;2024-02-15T15:11:29;6.40;;;2.00;;
6406;SDS011;3236;51.022;6.818;2024-02-15T15:14:14;4.55;;;2.15;;
6406;SDS011;3236;51.022;6.818;2024-02-15T15:16:42;7.55;;;4.00;;
6406;SDS011;3236;51.022;6.818;2024-02-15T15:19:11;10.80;;;6.18;;
6406;SDS011;3236;51.022;6.818;2024-02-15T15:21:41;8.45;;;2.20;;
6406;SDS011;3236;51.022;6.818;2024-02-15T15:24:10;12.50;;;2.13;;
6406;SDS011;3236;51.022;6.818;2024-02-15T15:26:38;6.32;;;1.85;;
6406;SDS011;3236;51.022;6.818;2024-02-15T15:29:09;9.07;;;1.90;;
6406;SDS011;3236;51.022;6.818;2024-02-15T15:31:39;5.53;;;2.10;;
6406;SDS011;3236;51.022;6.818;2024-02-15T15:34:07;8.65;;;1.80;;
6406;SDS011;3236;51.022;6.818;2024-02-15T15:36:34;9.00;;;2.47;;
6406;SDS011;3236;51.022;6.818;2024-02-15T15:39:02;4.68;;;1.63;;
6406;SDS011;3236;51.022;6.818;2024-02-15T15:44:02;4.82;;;1.80;;
6406;SDS011;3236;51.022;6.818;2024-02-15T15:46:30;6.97;;;1.75;;
6406;SDS011;3236;51.022;6.818;2024-02-15T15:49:01;7.10;;;2.10;;
6406;SDS011;3236;51.022;6.818;2024-02-15T15:51:29;6.25;;;1.90;;
6406;SDS011;3236;51.022;6.818;2024-02-15T15:53:56;4.95;;;1.83;;